• Join FlightAware (Why Join?)
  • Login
  • US Flag 
01:01AM EDT


 

Airport Tracker/Info


-or-


 

Live Flight TrackerFlight Track Log ✈ SWA554 ✈ 11-May-2013 ✈ KSMF - KLAX

Flight Track Log - Related Links

Times and Time Zones

All times are in EDT time to prevent confusion due to time zone crossing. See the SWA554 flight status page for this flight to view local times or setup timezone preferences in your user account.

Time Position Orientation Groundspeed Altitude Reporting Facility
EDT Latitude Longitude Course Direction KTS MPH feet Rate Location/Type
10:20PM 38.6500 -121.5833 108° East 179 206 2,100  Level Northern Cal TRACON
10:21PM 38.6333 -121.5167 108° East 219 252 4,900 3,060 Climbing Northern Cal TRACON
10:23PM 38.5481 -121.3447 122° Southeast 284 327 11,500 3,180 Climbing Oakland Center
10:24PM 38.4997 -121.2467 122° Southeast 323 372 14,600 2,940 Climbing Oakland Center
10:25PM 38.4519 -121.1436 121° Southeast 359 413 17,500 3,000 Climbing Oakland Center
10:26PM 38.3972 -121.0286 121° Southeast 376 433 20,700 2,820 Climbing Oakland Center
10:27PM 38.3408 -120.9092 121° Southeast 393 452 23,300 2,520 Climbing Oakland Center
10:28PM 38.2794 -120.7831 122° Southeast 416 479 25,800 2,340 Climbing Oakland Center
10:29PM 38.2100 -120.6611 126° Southeast 435 501 28,100 2,100 Climbing Oakland Center
10:30PM 38.1131 -120.5656 142° Southeast 443 510 30,100 1,800 Climbing Oakland Center
10:31PM 38.0114 -120.4672 143° Southeast 456 525 31,800 1,740 Climbing Oakland Center
10:32PM 37.9044 -120.3731 145° Southeast 466 536 33,700 1,680 Climbing Oakland Center
10:33PM 37.7500 -120.3269 167° South 474 545 35,300 1,500 Climbing Oakland Center
10:34PM 37.6186 -120.2889 167° South 482 555 36,800 1,500 Climbing Oakland Center
10:35PM 37.4869 -120.2519 167° South 482 555 38,400 1,380 Climbing Oakland Center
10:36PM 37.3567 -120.2167 168° South 479 551 39,600 1,020 Climbing Oakland Center
10:37PM 37.2225 -120.1828 169° South 481 554 40,500 660 Climbing Oakland Center
10:38PM 37.0903 -120.1461 168° South 484 557 41,000 240 Climbing Oakland Center
10:39PM 36.9564 -120.1072 167° South 478 550 41,000 -420 Level Oakland Center
10:40PM 36.8258 -120.0686 167° South 477 549 40,200 -900 Descending Oakland Center
10:41PM 36.6961 -120.0325 167° South 466 536 39,200 -600 Descending Oakland Center
10:42PM 36.5639 -119.9942 167° South 477 549 39,000 -120 Descending Oakland Center
10:43PM 36.4319 -119.9572 167° South 482 555 39,000  Level Oakland Center
10:44PM 36.3003 -119.9206 167° South 484 557 39,000  Level Oakland Center
10:45PM 36.1681 -119.8842 167° South 484 557 39,000  Level Oakland Center
10:46PM 36.0358 -119.8486 168° South 485 558 39,000  Level Oakland Center
10:47PM 35.9069 -119.8161 168° South 474 545 39,000  Level Oakland Center
10:49PM 35.7739 -119.7808 168° South 482 555 39,000  Level Oakland Center
10:50PM 35.6408 -119.7447 168° South 485 558 39,000  Level Oakland Center
10:51PM 35.5083 -119.7094 168° South 484 557 39,000  Level Oakland Center
10:52PM 35.3753 -119.6731 167° South 485 558 39,000  Level Oakland Center
10:52PM 35.3481 -119.6672 170° South 487 560 39,000 -2,160 Level Los Angeles Center
10:53PM 35.2011 -119.5944 158° South 478 550 36,300 -2,880 Descending Los Angeles Center
10:54PM 35.0922 -119.5014 145° Southeast 476 548 33,200 -2,940 Descending Los Angeles Center
10:55PM 34.9828 -119.4086 145° Southeast 479 551 30,400 -2,580 Descending Los Angeles Center
10:56PM 34.8761 -119.3181 145° Southeast 470 541 28,000 -2,340 Descending Los Angeles Center
10:57PM 34.7767 -119.2322 145° Southeast 445 512 25,700 -2,220 Descending Los Angeles Center
10:58PM 34.6789 -119.1508 146° Southeast 429 494 23,500 -2,220 Descending Los Angeles Center
10:59PM 34.5767 -119.0672 146° Southeast 417 480 21,200 -2,160 Descending Los Angeles Center
11:00PM 34.4875 -118.9906 145° Southeast 396 456 19,200 -1,980 Descending Los Angeles Center
11:01PM 34.4025 -118.9219 146° Southeast 371 427 17,200 -1,980 Descending Los Angeles Center
11:02PM 34.3158 -118.8678 153° Southeast 353 406 15,200 -2,040 Descending Los Angeles Center
11:03PM 34.2217 -118.8317 162° South 352 405 13,100 -1,680 Descending Los Angeles Center
11:04PM 34.1300 -118.7992 164° South 344 396 11,900 -1,200 Descending Los Angeles Center
11:05PM 34.0433 -118.7511 155° Southeast 321 369 10,700 -1,080 Descending Los Angeles Center
11:06PM 34.0281 -118.6511 100° East 285 328 9,700 -1,320 Descending Los Angeles Center
11:07PM 34.0192 -118.5578 97° East 282 325 8,100 -1,380 Descending Los Angeles Center
11:08PM 34.0108 -118.4667 96° East 275 316 7,000 -960 Descending Los Angeles Center
11:09PM 34.0161 -118.3842 86° East 250 288 6,200 -1,020 Descending Los Angeles Center
11:10PM 34.0250 -118.3039 82° East 241 277 5,000 -1,140 Descending Los Angeles Center
11:11PM 34.0372 -118.2225 80° East 245 282 3,900 -1,140 Descending Los Angeles Center
11:12PM 34.0389 -118.1442 89° East 246 283 2,800 -840 Descending Los Angeles Center
11:13PM 33.9844 -118.1386 175° South 227 261 2,200 -300 Descending Los Angeles Center
11:14PM 33.9731 -118.1981 257° West 192 221 2,200  Level Los Angeles Center
11:15PM 33.9681 -118.2583 264° West 184 212 2,200 -300 Level Los Angeles Center
11:16PM 33.9617 -118.3131 262° West 176 203 1,600 -660 Descending Los Angeles Center
11:17PM 33.9575 -118.3575 264° West 154 177 900 -720 Descending Los Angeles Center
11:18PM 33.9522 -118.4014 262° West 142 163 200 -720 Descending Los Angeles Center
11:20PM 33.9425 -118.4081 243° Southwest  Level Estimated
11:27PM 33.9425 -118.4081 243° Southwest  Level Estimated